sensor_id;sensor_type;location;lat;lon;timestamp;temperature;humidity
72940;DHT22;61094;51.154;13.570;2023-05-10T00:04:04;12.70;60.90
72940;DHT22;61094;51.154;13.570;2023-05-10T00:09:07;12.60;61.70
72940;DHT22;61094;51.154;13.570;2023-05-10T00:14:09;12.60;61.60
72940;DHT22;61094;51.154;13.570;2023-05-10T00:19:10;12.40;62.80
72940;DHT22;61094;51.154;13.570;2023-05-10T00:24:14;12.30;63.90
72940;DHT22;61094;51.154;13.570;2023-05-10T00:29:15;12.30;64.20
72940;DHT22;61094;51.154;13.570;2023-05-10T00:34:17;12.30;66.00
72940;DHT22;61094;51.154;13.570;2023-05-10T00:39:20;12.20;66.40
72940;DHT22;61094;51.154;13.570;2023-05-10T00:44:22;12.10;66.70
72940;DHT22;61094;51.154;13.570;2023-05-10T00:49:24;12.10;66.10
72940;DHT22;61094;51.154;13.570;2023-05-10T00:54:27;12.00;66.70
72940;DHT22;61094;51.154;13.570;2023-05-10T00:59:29;12.00;67.40
72940;DHT22;61094;51.154;13.570;2023-05-10T01:04:32;11.90;68.30
72940;DHT22;61094;51.154;13.570;2023-05-10T01:09:35;11.80;67.00
72940;DHT22;61094;51.154;13.570;2023-05-10T01:14:37;11.70;70.90
72940;DHT22;61094;51.154;13.570;2023-05-10T01:19:41;11.70;69.60
72940;DHT22;61094;51.154;13.570;2023-05-10T01:30:58;11.70;70.80
72940;DHT22;61094;51.154;13.570;2023-05-10T01:36:19;11.70;69.70
72940;DHT22;61094;51.154;13.570;2023-05-10T01:41:31;11.60;70.20
72940;DHT22;61094;51.154;13.570;2023-05-10T01:46:37;11.60;69.00
72940;DHT22;61094;51.154;13.570;2023-05-10T01:51:45;11.50;70.50
72940;DHT22;61094;51.154;13.570;2023-05-10T01:56:52;11.40;71.20
72940;DHT22;61094;51.154;13.570;2023-05-10T02:01:58;11.40;72.10
72940;DHT22;61094;51.154;13.570;2023-05-10T02:07:02;11.40;72.70
72940;DHT22;61094;51.154;13.570;2023-05-10T02:12:05;11.30;72.90
72940;DHT22;61094;51.154;13.570;2023-05-10T02:17:08;11.20;73.20
72940;DHT22;61094;51.154;13.570;2023-05-10T02:22:12;11.20;73.70
72940;DHT22;61094;51.154;13.570;2023-05-10T02:27:14;11.10;74.40
72940;DHT22;61094;51.154;13.570;2023-05-10T02:32:17;11.10;75.80
72940;DHT22;61094;51.154;13.570;2023-05-10T02:37:21;11.00;77.80
72940;DHT22;61094;51.154;13.570;2023-05-10T02:42:25;10.90;78.00
72940;DHT22;61094;51.154;13.570;2023-05-10T02:47:28;10.80;77.60
72940;DHT22;61094;51.154;13.570;2023-05-10T02:52:46;10.80;80.90
72940;DHT22;61094;51.154;13.570;2023-05-10T02:57:51;10.80;79.90
72940;DHT22;61094;51.154;13.570;2023-05-10T03:02:54;10.70;81.10
72940;DHT22;61094;51.154;13.570;2023-05-10T03:07:57;10.70;82.20
72940;DHT22;61094;51.154;13.570;2023-05-10T03:13:10;10.60;83.40
72940;DHT22;61094;51.154;13.570;2023-05-10T03:18:21;10.60;83.30
72940;DHT22;61094;51.154;13.570;2023-05-10T03:23:27;10.60;84.90
72940;DHT22;61094;51.154;13.570;2023-05-10T03:28:32;10.50;83.90
72940;DHT22;61094;51.154;13.570;2023-05-10T03:33:46;10.50;82.20
72940;DHT22;61094;51.154;13.570;2023-05-10T03:38:49;10.40;86.50
72940;DHT22;61094;51.154;13.570;2023-05-10T03:43:51;10.50;87.50
72940;DHT22;61094;51.154;13.570;2023-05-10T03:48:53;10.50;87.50
72940;DHT22;61094;51.154;13.570;2023-05-10T03:53:57;10.40;87.80
72940;DHT22;61094;51.154;13.570;2023-05-10T03:58:58;10.40;86.90
72940;DHT22;61094;51.154;13.570;2023-05-10T04:04:00;10.40;89.10
72940;DHT22;61094;51.154;13.570;2023-05-10T04:09:06;10.40;89.90
72940;DHT22;61094;51.154;13.570;2023-05-10T04:14:08;10.40;89.70
72940;DHT22;61094;51.154;13.570;2023-05-10T04:19:10;10.40;90.40
72940;DHT22;61094;51.154;13.570;2023-05-10T04:24:13;10.40;90.10
72940;DHT22;61094;51.154;13.570;2023-05-10T04:29:15;10.40;90.40
72940;DHT22;61094;51.154;13.570;2023-05-10T04:34:17;10.60;90.10
72940;DHT22;61094;51.154;13.570;2023-05-10T04:39:20;10.70;88.90
72940;DHT22;61094;51.154;13.570;2023-05-10T04:44:22;10.70;88.70
72940;DHT22;61094;51.154;13.570;2023-05-10T04:49:23;10.80;87.80
72940;DHT22;61094;51.154;13.570;2023-05-10T04:54:26;10.90;87.00
72940;DHT22;61094;51.154;13.570;2023-05-10T04:59:28;11.00;86.40
72940;DHT22;61094;51.154;13.570;2023-05-10T05:04:30;11.10;84.50
72940;DHT22;61094;51.154;13.570;2023-05-10T05:09:33;11.20;84.80
72940;DHT22;61094;51.154;13.570;2023-05-10T05:14:34;11.20;85.80
72940;DHT22;61094;51.154;13.570;2023-05-10T05:19:36;11.30;84.50
72940;DHT22;61094;51.154;13.570;2023-05-10T05:24:39;11.40;83.80
72940;DHT22;61094;51.154;13.570;2023-05-10T05:29:41;11.50;82.00
72940;DHT22;61094;51.154;13.570;2023-05-10T05:34:44;11.60;82.60
72940;DHT22;61094;51.154;13.570;2023-05-10T05:39:47;11.70;80.50
72940;DHT22;61094;51.154;13.570;2023-05-10T05:44:49;11.90;80.80
72940;DHT22;61094;51.154;13.570;2023-05-10T05:49:50;11.90;80.20
72940;DHT22;61094;51.154;13.570;2023-05-10T05:54:53;12.10;78.40
72940;DHT22;61094;51.154;13.570;2023-05-10T05:59:55;12.20;76.40
72940;DHT22;61094;51.154;13.570;2023-05-10T06:04:57;12.40;78.50
72940;DHT22;61094;51.154;13.570;2023-05-10T06:10:00;12.50;77.70
72940;DHT22;61094;51.154;13.570;2023-05-10T06:15:02;12.70;77.00
72940;DHT22;61094;51.154;13.570;2023-05-10T06:20:05;12.80;72.90
72940;DHT22;61094;51.154;13.570;2023-05-10T06:25:09;13.00;72.70
72940;DHT22;61094;51.154;13.570;2023-05-10T06:30:12;13.20;70.60
72940;DHT22;61094;51.154;13.570;2023-05-10T06:35:15;13.40;72.40
72940;DHT22;61094;51.154;13.570;2023-05-10T06:40:19;13.50;68.60
72940;DHT22;61094;51.154;13.570;2023-05-10T06:45:21;13.70;66.00
72940;DHT22;61094;51.154;13.570;2023-05-10T06:50:22;13.90;64.30
72940;DHT22;61094;51.154;13.570;2023-05-10T06:55:25;14.00;66.80
72940;DHT22;61094;51.154;13.570;2023-05-10T07:00:27;14.20;64.30
72940;DHT22;61094;51.154;13.570;2023-05-10T07:05:29;14.40;63.10
72940;DHT22;61094;51.154;13.570;2023-05-10T07:10:32;14.70;61.60
72940;DHT22;61094;51.154;13.570;2023-05-10T07:15:34;15.20;55.00
72940;DHT22;61094;51.154;13.570;2023-05-10T07:20:36;15.90;50.80
72940;DHT22;61094;51.154;13.570;2023-05-10T07:25:39;16.50;47.70
72940;DHT22;61094;51.154;13.570;2023-05-10T07:30:41;17.00;45.70
72940;DHT22;61094;51.154;13.570;2023-05-10T07:35:42;17.30;44.60
72940;DHT22;61094;51.154;13.570;2023-05-10T07:40:46;17.70;44.40
72940;DHT22;61094;51.154;13.570;2023-05-10T07:45:47;17.90;43.30
72940;DHT22;61094;51.154;13.570;2023-05-10T07:50:49;18.10;42.70
72940;DHT22;61094;51.154;13.570;2023-05-10T07:55:54;18.50;41.80
72940;DHT22;61094;51.154;13.570;2023-05-10T08:00:58;18.60;42.50
72940;DHT22;61094;51.154;13.570;2023-05-10T08:06:00;18.70;41.10
72940;DHT22;61094;51.154;13.570;2023-05-10T08:11:03;18.90;41.30
72940;DHT22;61094;51.154;13.570;2023-05-10T08:16:05;19.00;41.00
72940;DHT22;61094;51.154;13.570;2023-05-10T08:21:07;19.10;41.80
72940;DHT22;61094;51.154;13.570;2023-05-10T08:26:12;19.20;39.90
72940;DHT22;61094;51.154;13.570;2023-05-10T08:31:14;19.30;41.00
72940;DHT22;61094;51.154;13.570;2023-05-10T08:36:16;19.50;40.10
72940;DHT22;61094;51.154;13.570;2023-05-10T08:41:24;19.70;39.90
72940;DHT22;61094;51.154;13.570;2023-05-10T08:46:26;19.70;40.20
72940;DHT22;61094;51.154;13.570;2023-05-10T08:51:29;20.00;39.60
72940;DHT22;61094;51.154;13.570;2023-05-10T08:56:34;20.30;39.90
72940;DHT22;61094;51.154;13.570;2023-05-10T09:01:36;20.50;38.70
72940;DHT22;61094;51.154;13.570;2023-05-10T09:06:39;20.60;38.60
72940;DHT22;61094;51.154;13.570;2023-05-10T09:11:43;20.80;38.60
72940;DHT22;61094;51.154;13.570;2023-05-10T09:16:45;21.20;38.80
72940;DHT22;61094;51.154;13.570;2023-05-10T09:21:48;21.40;38.30
72940;DHT22;61094;51.154;13.570;2023-05-10T09:26:52;21.70;38.50
72940;DHT22;61094;51.154;13.570;2023-05-10T09:31:53;22.20;37.30
72940;DHT22;61094;51.154;13.570;2023-05-10T09:36:57;22.50;36.60
72940;DHT22;61094;51.154;13.570;2023-05-10T09:42:04;22.60;36.80
72940;DHT22;61094;51.154;13.570;2023-05-10T09:47:06;23.00;36.10
72940;DHT22;61094;51.154;13.570;2023-05-10T09:52:08;23.40;36.00
72940;DHT22;61094;51.154;13.570;2023-05-10T09:57:19;23.80;34.40
72940;DHT22;61094;51.154;13.570;2023-05-10T10:02:28;24.00;34.40
72940;DHT22;61094;51.154;13.570;2023-05-10T10:07:30;24.20;35.20
72940;DHT22;61094;51.154;13.570;2023-05-10T10:12:33;24.40;35.70
72940;DHT22;61094;51.154;13.570;2023-05-10T10:17:36;24.60;33.20
72940;DHT22;61094;51.154;13.570;2023-05-10T10:22:39;24.60;35.00
72940;DHT22;61094;51.154;13.570;2023-05-10T10:33:24;24.20;34.20
72940;DHT22;61094;51.154;13.570;2023-05-10T10:38:37;23.80;34.50
72940;DHT22;61094;51.154;13.570;2023-05-10T10:43:41;23.50;34.80
72940;DHT22;61094;51.154;13.570;2023-05-10T10:48:48;23.50;35.60
72940;DHT22;61094;51.154;13.570;2023-05-10T10:53:51;23.60;35.40
72940;DHT22;61094;51.154;13.570;2023-05-10T10:58:59;23.50;35.10
72940;DHT22;61094;51.154;13.570;2023-05-10T11:04:17;23.30;35.60
72940;DHT22;61094;51.154;13.570;2023-05-10T11:09:20;23.40;35.40
72940;DHT22;61094;51.154;13.570;2023-05-10T11:14:31;23.40;35.80
72940;DHT22;61094;51.154;13.570;2023-05-10T11:19:33;23.50;35.20
72940;DHT22;61094;51.154;13.570;2023-05-10T11:24:35;23.40;34.70
72940;DHT22;61094;51.154;13.570;2023-05-10T11:29:38;23.50;36.10
72940;DHT22;61094;51.154;13.570;2023-05-10T11:34:40;23.40;35.00
72940;DHT22;61094;51.154;13.570;2023-05-10T11:39:45;23.50;35.30
72940;DHT22;61094;51.154;13.570;2023-05-10T11:44:50;23.20;35.30
72940;DHT22;61094;51.154;13.570;2023-05-10T11:49:53;22.90;35.50
72940;DHT22;61094;51.154;13.570;2023-05-10T11:54:54;22.70;36.60
72940;DHT22;61094;51.154;13.570;2023-05-10T11:59:58;22.70;36.70
72940;DHT22;61094;51.154;13.570;2023-05-10T12:05:00;22.70;36.10
72940;DHT22;61094;51.154;13.570;2023-05-10T12:10:08;22.60;35.80
72940;DHT22;61094;51.154;13.570;2023-05-10T12:15:12;22.70;36.10
72940;DHT22;61094;51.154;13.570;2023-05-10T12:20:20;22.20;37.00
72940;DHT22;61094;51.154;13.570;2023-05-10T12:30:28;22.30;37.30
72940;DHT22;61094;51.154;13.570;2023-05-10T12:35:30;22.40;37.50
72940;DHT22;61094;51.154;13.570;2023-05-10T12:40:32;22.40;37.30
72940;DHT22;61094;51.154;13.570;2023-05-10T12:45:35;21.60;39.90
72940;DHT22;61094;51.154;13.570;2023-05-10T12:50:37;21.30;41.50
72940;DHT22;61094;51.154;13.570;2023-05-10T12:55:39;21.10;42.60
72940;DHT22;61094;51.154;13.570;2023-05-10T13:00:42;20.70;44.50
72940;DHT22;61094;51.154;13.570;2023-05-10T13:05:44;20.60;46.30
72940;DHT22;61094;51.154;13.570;2023-05-10T13:10:46;20.60;48.30
72940;DHT22;61094;51.154;13.570;2023-05-10T13:15:49;20.50;51.30
72940;DHT22;61094;51.154;13.570;2023-05-10T13:20:50;20.50;56.80
72940;DHT22;61094;51.154;13.570;2023-05-10T13:25:52;20.40;57.10
72940;DHT22;61094;51.154;13.570;2023-05-10T13:30:56;20.50;58.80
72940;DHT22;61094;51.154;13.570;2023-05-10T13:35:58;20.70;56.50
72940;DHT22;61094;51.154;13.570;2023-05-10T13:41:00;21.00;54.00
72940;DHT22;61094;51.154;13.570;2023-05-10T13:46:04;21.10;51.70
72940;DHT22;61094;51.154;13.570;2023-05-10T13:51:06;21.30;52.60
72940;DHT22;61094;51.154;13.570;2023-05-10T13:56:10;21.60;50.00
72940;DHT22;61094;51.154;13.570;2023-05-10T14:01:13;21.90;46.60
72940;DHT22;61094;51.154;13.570;2023-05-10T14:06:15;22.00;44.40
72940;DHT22;61094;51.154;13.570;2023-05-10T14:11:17;21.90;46.70
72940;DHT22;61094;51.154;13.570;2023-05-10T14:16:20;21.80;47.60
72940;DHT22;61094;51.154;13.570;2023-05-10T14:21:22;21.90;49.10
72940;DHT22;61094;51.154;13.570;2023-05-10T14:26:25;21.90;49.10
72940;DHT22;61094;51.154;13.570;2023-05-10T14:31:28;22.00;46.90
72940;DHT22;61094;51.154;13.570;2023-05-10T14:36:30;21.90;47.20
72940;DHT22;61094;51.154;13.570;2023-05-10T14:41:32;21.80;47.80
72940;DHT22;61094;51.154;13.570;2023-05-10T14:46:36;21.50;48.00
72940;DHT22;61094;51.154;13.570;2023-05-10T14:51:38;21.20;50.10
72940;DHT22;61094;51.154;13.570;2023-05-10T14:56:40;21.10;50.40
72940;DHT22;61094;51.154;13.570;2023-05-10T15:01:44;21.00;53.70
72940;DHT22;61094;51.154;13.570;2023-05-10T15:11:51;20.70;59.40
72940;DHT22;61094;51.154;13.570;2023-05-10T15:16:54;20.70;63.20
72940;DHT22;61094;51.154;13.570;2023-05-10T15:21:56;20.80;63.80
72940;DHT22;61094;51.154;13.570;2023-05-10T15:26:58;20.70;60.10
72940;DHT22;61094;51.154;13.570;2023-05-10T15:32:01;20.60;66.10
72940;DHT22;61094;51.154;13.570;2023-05-10T15:37:03;20.60;64.30
72940;DHT22;61094;51.154;13.570;2023-05-10T15:42:05;20.50;62.50
72940;DHT22;61094;51.154;13.570;2023-05-10T15:47:08;20.40;63.90
72940;DHT22;61094;51.154;13.570;2023-05-10T15:52:10;20.20;60.60
72940;DHT22;61094;51.154;13.570;2023-05-10T15:57:11;20.20;65.10
72940;DHT22;61094;51.154;13.570;2023-05-10T16:02:15;20.00;66.20
72940;DHT22;61094;51.154;13.570;2023-05-10T16:07:18;20.00;63.50
72940;DHT22;61094;51.154;13.570;2023-05-10T16:12:20;19.80;65.00
72940;DHT22;61094;51.154;13.570;2023-05-10T16:17:24;19.60;73.80
72940;DHT22;61094;51.154;13.570;2023-05-10T16:22:25;19.50;70.50
72940;DHT22;61094;51.154;13.570;2023-05-10T16:27:28;19.30;70.50
72940;DHT22;61094;51.154;13.570;2023-05-10T16:32:34;19.20;76.50
72940;DHT22;61094;51.154;13.570;2023-05-10T16:37:36;19.10;78.00
72940;DHT22;61094;51.154;13.570;2023-05-10T16:42:37;19.10;84.20
72940;DHT22;61094;51.154;13.570;2023-05-10T16:47:40;18.90;84.80
72940;DHT22;61094;51.154;13.570;2023-05-10T16:52:42;18.80;79.60
72940;DHT22;61094;51.154;13.570;2023-05-10T16:57:44;18.70;88.20
72940;DHT22;61094;51.154;13.570;2023-05-10T17:02:47;18.60;87.00
72940;DHT22;61094;51.154;13.570;2023-05-10T17:07:49;18.40;88.50
72940;DHT22;61094;51.154;13.570;2023-05-10T17:12:50;18.30;90.10
72940;DHT22;61094;51.154;13.570;2023-05-10T17:17:54;18.10;87.80
72940;DHT22;61094;51.154;13.570;2023-05-10T17:22:57;17.80;90.80
72940;DHT22;61094;51.154;13.570;2023-05-10T17:27:59;17.80;90.90
72940;DHT22;61094;51.154;13.570;2023-05-10T17:33:02;17.80;91.20
72940;DHT22;61094;51.154;13.570;2023-05-10T17:38:03;17.70;91.60
72940;DHT22;61094;51.154;13.570;2023-05-10T17:43:05;17.70;91.70
72940;DHT22;61094;51.154;13.570;2023-05-10T17:48:08;17.60;91.30
72940;DHT22;61094;51.154;13.570;2023-05-10T17:53:12;17.60;92.90
72940;DHT22;61094;51.154;13.570;2023-05-10T17:58:13;17.50;91.20
72940;DHT22;61094;51.154;13.570;2023-05-10T18:03:17;17.50;92.00
72940;DHT22;61094;51.154;13.570;2023-05-10T18:08:18;17.40;93.10
72940;DHT22;61094;51.154;13.570;2023-05-10T18:13:22;17.40;93.10
72940;DHT22;61094;51.154;13.570;2023-05-10T18:18:26;17.40;94.30
72940;DHT22;61094;51.154;13.570;2023-05-10T18:23:28;17.30;92.70
72940;DHT22;61094;51.154;13.570;2023-05-10T18:28:29;17.20;93.80
72940;DHT22;61094;51.154;13.570;2023-05-10T18:33:32;17.20;93.90
72940;DHT22;61094;51.154;13.570;2023-05-10T18:38:34;17.20;93.70
72940;DHT22;61094;51.154;13.570;2023-05-10T18:43:36;17.10;94.80
72940;DHT22;61094;51.154;13.570;2023-05-10T18:48:39;17.10;95.70
72940;DHT22;61094;51.154;13.570;2023-05-10T18:53:41;17.10;95.20
72940;DHT22;61094;51.154;13.570;2023-05-10T18:58:44;17.10;95.70
72940;DHT22;61094;51.154;13.570;2023-05-10T19:03:47;16.90;96.30
72940;DHT22;61094;51.154;13.570;2023-05-10T19:08:49;16.80;96.80
72940;DHT22;61094;51.154;13.570;2023-05-10T19:13:51;16.80;97.20
72940;DHT22;61094;51.154;13.570;2023-05-10T19:18:54;16.60;96.80
72940;DHT22;61094;51.154;13.570;2023-05-10T19:23:56;16.60;97.70
72940;DHT22;61094;51.154;13.570;2023-05-10T19:28:58;16.30;97.40
72940;DHT22;61094;51.154;13.570;2023-05-10T19:34:01;16.10;96.60
72940;DHT22;61094;51.154;13.570;2023-05-10T19:39:03;15.90;99.20
72940;DHT22;61094;51.154;13.570;2023-05-10T19:44:05;15.60;99.90
72940;DHT22;61094;51.154;13.570;2023-05-10T19:49:08;15.60;99.90
72940;DHT22;61094;51.154;13.570;2023-05-10T19:54:10;15.40;99.90
72940;DHT22;61094;51.154;13.570;2023-05-10T19:59:12;15.30;99.90
72940;DHT22;61094;51.154;13.570;2023-05-10T20:04:15;15.30;99.90
72940;DHT22;61094;51.154;13.570;2023-05-10T20:09:17;15.30;99.90
72940;DHT22;61094;51.154;13.570;2023-05-10T20:14:18;15.40;99.90
72940;DHT22;61094;51.154;13.570;2023-05-10T20:19:21;15.40;99.90
72940;DHT22;61094;51.154;13.570;2023-05-10T20:24:23;15.30;99.90
72940;DHT22;61094;51.154;13.570;2023-05-10T20:29:26;15.30;99.90
72940;DHT22;61094;51.154;13.570;2023-05-10T20:34:32;15.30;99.90
72940;DHT22;61094;51.154;13.570;2023-05-10T20:39:34;15.20;99.90
72940;DHT22;61094;51.154;13.570;2023-05-10T20:44:36;15.10;99.90
72940;DHT22;61094;51.154;13.570;2023-05-10T20:49:39;15.10;99.90
72940;DHT22;61094;51.154;13.570;2023-05-10T20:54:41;15.20;99.90
72940;DHT22;61094;51.154;13.570;2023-05-10T20:59:43;15.10;99.90
72940;DHT22;61094;51.154;13.570;2023-05-10T21:04:47;15.00;99.90
72940;DHT22;61094;51.154;13.570;2023-05-10T21:09:49;14.80;99.90
72940;DHT22;61094;51.154;13.570;2023-05-10T21:14:51;14.70;99.90
72940;DHT22;61094;51.154;13.570;2023-05-10T21:19:54;14.60;99.90
72940;DHT22;61094;51.154;13.570;2023-05-10T21:24:56;14.50;99.90
72940;DHT22;61094;51.154;13.570;2023-05-10T21:29:58;14.30;99.90
72940;DHT22;61094;51.154;13.570;2023-05-10T21:35:01;14.10;99.90
72940;DHT22;61094;51.154;13.570;2023-05-10T21:40:04;14.00;99.90
72940;DHT22;61094;51.154;13.570;2023-05-10T21:45:07;13.90;99.90
72940;DHT22;61094;51.154;13.570;2023-05-10T21:50:10;13.60;99.90
72940;DHT22;61094;51.154;13.570;2023-05-10T21:55:12;13.40;99.90
72940;DHT22;61094;51.154;13.570;2023-05-10T22:00:14;13.20;99.90
72940;DHT22;61094;51.154;13.570;2023-05-10T22:05:19;13.10;99.90
72940;DHT22;61094;51.154;13.570;2023-05-10T22:10:21;12.90;99.90
72940;DHT22;61094;51.154;13.570;2023-05-10T22:15:23;12.80;99.90
72940;DHT22;61094;51.154;13.570;2023-05-10T22:20:27;12.80;99.90
72940;DHT22;61094;51.154;13.570;2023-05-10T22:25:29;12.70;99.90
72940;DHT22;61094;51.154;13.570;2023-05-10T22:30:31;12.60;99.90
72940;DHT22;61094;51.154;13.570;2023-05-10T22:35:34;12.60;99.90
72940;DHT22;61094;51.154;13.570;2023-05-10T22:40:36;12.60;99.90
72940;DHT22;61094;51.154;13.570;2023-05-10T22:45:37;12.60;99.90
72940;DHT22;61094;51.154;13.570;2023-05-10T22:50:41;12.50;99.90
72940;DHT22;61094;51.154;13.570;2023-05-10T22:55:42;12.20;99.90
72940;DHT22;61094;51.154;13.570;2023-05-10T23:00:44;12.10;99.90
72940;DHT22;61094;51.154;13.570;2023-05-10T23:05:47;12.20;99.90
72940;DHT22;61094;51.154;13.570;2023-05-10T23:10:49;12.20;99.90
72940;DHT22;61094;51.154;13.570;2023-05-10T23:15:51;11.90;99.90
72940;DHT22;61094;51.154;13.570;2023-05-10T23:20:54;11.70;99.90
72940;DHT22;61094;51.154;13.570;2023-05-10T23:25:55;11.70;99.90
72940;DHT22;61094;51.154;13.570;2023-05-10T23:30:57;11.50;99.90
72940;DHT22;61094;51.154;13.570;2023-05-10T23:36:00;11.60;99.90
72940;DHT22;61094;51.154;13.570;2023-05-10T23:41:02;11.60;99.90
72940;DHT22;61094;51.154;13.570;2023-05-10T23:46:04;11.50;99.90
72940;DHT22;61094;51.154;13.570;2023-05-10T23:51:07;11.50;99.90
72940;DHT22;61094;51.154;13.570;2023-05-10T23:56:09;11.30;99.90
